sensor_id;sensor_type;location;lat;lon;timestamp;temperature;humidity
13898;DHT22;7019;50.766;4.474;2023-04-25T00:01:58;7.70;99.90
13898;DHT22;7019;50.766;4.474;2023-04-25T00:04:25;7.70;99.90
13898;DHT22;7019;50.766;4.474;2023-04-25T00:06:53;7.70;99.90
13898;DHT22;7019;50.766;4.474;2023-04-25T00:09:20;7.70;99.90
13898;DHT22;7019;50.766;4.474;2023-04-25T00:11:47;7.70;99.90
13898;DHT22;7019;50.766;4.474;2023-04-25T00:14:14;7.70;99.90
13898;DHT22;7019;50.766;4.474;2023-04-25T00:16:42;7.80;99.90
13898;DHT22;7019;50.766;4.474;2023-04-25T00:19:11;7.70;99.90
13898;DHT22;7019;50.766;4.474;2023-04-25T00:21:38;7.70;99.90
13898;DHT22;7019;50.766;4.474;2023-04-25T00:24:06;7.80;99.90
13898;DHT22;7019;50.766;4.474;2023-04-25T00:26:34;7.70;99.90
13898;DHT22;7019;50.766;4.474;2023-04-25T00:29:01;7.70;99.90
13898;DHT22;7019;50.766;4.474;2023-04-25T00:31:29;7.70;99.90
13898;DHT22;7019;50.766;4.474;2023-04-25T00:33:56;7.70;99.90
13898;DHT22;7019;50.766;4.474;2023-04-25T00:36:24;7.70;99.90
13898;DHT22;7019;50.766;4.474;2023-04-25T00:38:53;7.60;99.90
13898;DHT22;7019;50.766;4.474;2023-04-25T00:41:20;7.60;99.90
13898;DHT22;7019;50.766;4.474;2023-04-25T00:43:48;7.60;99.90
13898;DHT22;7019;50.766;4.474;2023-04-25T00:46:15;7.60;99.90
13898;DHT22;7019;50.766;4.474;2023-04-25T00:48:43;7.50;99.90
13898;DHT22;7019;50.766;4.474;2023-04-25T00:51:13;7.50;99.90
13898;DHT22;7019;50.766;4.474;2023-04-25T00:53:42;7.50;99.90
13898;DHT22;7019;50.766;4.474;2023-04-25T00:56:09;7.50;99.90
13898;DHT22;7019;50.766;4.474;2023-04-25T00:58:37;7.50;99.90
13898;DHT22;7019;50.766;4.474;2023-04-25T01:01:05;7.40;99.90
13898;DHT22;7019;50.766;4.474;2023-04-25T01:03:34;7.50;99.90
13898;DHT22;7019;50.766;4.474;2023-04-25T01:06:07;7.40;99.90
13898;DHT22;7019;50.766;4.474;2023-04-25T01:08:34;7.40;99.90
13898;DHT22;7019;50.766;4.474;2023-04-25T01:11:02;7.40;99.90
13898;DHT22;7019;50.766;4.474;2023-04-25T01:13:30;7.40;99.90
13898;DHT22;7019;50.766;4.474;2023-04-25T01:15:57;7.40;99.90
13898;DHT22;7019;50.766;4.474;2023-04-25T01:18:25;7.40;99.90
13898;DHT22;7019;50.766;4.474;2023-04-25T01:20:52;7.40;99.90
13898;DHT22;7019;50.766;4.474;2023-04-25T01:23:22;7.40;99.90
13898;DHT22;7019;50.766;4.474;2023-04-25T01:25:49;7.30;99.90
13898;DHT22;7019;50.766;4.474;2023-04-25T01:28:17;7.30;99.90
13898;DHT22;7019;50.766;4.474;2023-04-25T01:30:44;7.30;99.90
13898;DHT22;7019;50.766;4.474;2023-04-25T01:33:14;7.30;99.90
13898;DHT22;7019;50.766;4.474;2023-04-25T01:35:42;7.30;99.90
13898;DHT22;7019;50.766;4.474;2023-04-25T01:38:09;7.30;99.90
13898;DHT22;7019;50.766;4.474;2023-04-25T01:40:40;7.30;99.90
13898;DHT22;7019;50.766;4.474;2023-04-25T01:43:07;7.30;99.90
13898;DHT22;7019;50.766;4.474;2023-04-25T01:45:36;7.30;99.90
13898;DHT22;7019;50.766;4.474;2023-04-25T01:48:05;7.30;99.90
13898;DHT22;7019;50.766;4.474;2023-04-25T01:50:33;7.30;99.90
13898;DHT22;7019;50.766;4.474;2023-04-25T01:53:00;7.30;99.90
13898;DHT22;7019;50.766;4.474;2023-04-25T01:55:28;7.30;99.90
13898;DHT22;7019;50.766;4.474;2023-04-25T01:57:56;7.30;99.90
13898;DHT22;7019;50.766;4.474;2023-04-25T02:00:24;7.30;99.90
13898;DHT22;7019;50.766;4.474;2023-04-25T02:02:51;7.30;99.90
13898;DHT22;7019;50.766;4.474;2023-04-25T02:05:19;7.30;99.90
13898;DHT22;7019;50.766;4.474;2023-04-25T02:07:47;7.30;99.90
13898;DHT22;7019;50.766;4.474;2023-04-25T02:10:14;7.30;99.90
13898;DHT22;7019;50.766;4.474;2023-04-25T02:12:41;7.30;99.90
13898;DHT22;7019;50.766;4.474;2023-04-25T02:15:10;7.20;99.90
13898;DHT22;7019;50.766;4.474;2023-04-25T02:17:37;7.20;99.90
13898;DHT22;7019;50.766;4.474;2023-04-25T02:20:05;7.20;99.90
13898;DHT22;7019;50.766;4.474;2023-04-25T02:22:33;7.20;99.90
13898;DHT22;7019;50.766;4.474;2023-04-25T02:25:01;7.20;99.90
13898;DHT22;7019;50.766;4.474;2023-04-25T02:27:30;7.20;99.90
13898;DHT22;7019;50.766;4.474;2023-04-25T02:29:57;7.20;99.90
13898;DHT22;7019;50.766;4.474;2023-04-25T02:32:26;7.10;99.90
13898;DHT22;7019;50.766;4.474;2023-04-25T02:34:53;7.10;99.90
13898;DHT22;7019;50.766;4.474;2023-04-25T02:37:23;7.10;99.90
13898;DHT22;7019;50.766;4.474;2023-04-25T02:39:51;7.10;99.90
13898;DHT22;7019;50.766;4.474;2023-04-25T02:42:18;7.10;99.90
13898;DHT22;7019;50.766;4.474;2023-04-25T02:44:45;7.10;99.90
13898;DHT22;7019;50.766;4.474;2023-04-25T02:47:12;7.10;99.90
13898;DHT22;7019;50.766;4.474;2023-04-25T02:49:40;7.00;99.90
13898;DHT22;7019;50.766;4.474;2023-04-25T02:52:08;7.00;99.90
13898;DHT22;7019;50.766;4.474;2023-04-25T02:54:35;7.00;99.90
13898;DHT22;7019;50.766;4.474;2023-04-25T02:57:02;7.00;99.90
13898;DHT22;7019;50.766;4.474;2023-04-25T02:59:29;7.00;99.90
13898;DHT22;7019;50.766;4.474;2023-04-25T03:01:56;7.00;99.90
13898;DHT22;7019;50.766;4.474;2023-04-25T03:04:23;7.10;99.90
13898;DHT22;7019;50.766;4.474;2023-04-25T03:06:52;7.00;99.90
13898;DHT22;7019;50.766;4.474;2023-04-25T03:09:20;6.90;99.90
13898;DHT22;7019;50.766;4.474;2023-04-25T03:11:47;6.80;99.90
13898;DHT22;7019;50.766;4.474;2023-04-25T03:14:14;6.80;99.90
13898;DHT22;7019;50.766;4.474;2023-04-25T03:16:41;6.80;99.90
13898;DHT22;7019;50.766;4.474;2023-04-25T03:19:08;6.80;99.90
13898;DHT22;7019;50.766;4.474;2023-04-25T03:21:36;6.80;99.90
13898;DHT22;7019;50.766;4.474;2023-04-25T03:24:05;6.90;99.90
13898;DHT22;7019;50.766;4.474;2023-04-25T03:26:32;6.90;99.90
13898;DHT22;7019;50.766;4.474;2023-04-25T03:28:59;6.90;99.90
13898;DHT22;7019;50.766;4.474;2023-04-25T03:31:26;6.80;99.90
13898;DHT22;7019;50.766;4.474;2023-04-25T03:33:53;6.80;99.90
13898;DHT22;7019;50.766;4.474;2023-04-25T03:36:20;6.80;99.90
13898;DHT22;7019;50.766;4.474;2023-04-25T03:38:47;6.70;99.90
13898;DHT22;7019;50.766;4.474;2023-04-25T03:41:15;6.60;99.90
13898;DHT22;7019;50.766;4.474;2023-04-25T03:43:42;6.60;99.90
13898;DHT22;7019;50.766;4.474;2023-04-25T03:46:09;6.70;99.90
13898;DHT22;7019;50.766;4.474;2023-04-25T03:48:36;6.70;99.90
13898;DHT22;7019;50.766;4.474;2023-04-25T03:51:04;6.80;99.90
13898;DHT22;7019;50.766;4.474;2023-04-25T03:53:31;6.60;99.90
13898;DHT22;7019;50.766;4.474;2023-04-25T03:55:58;6.60;99.90
13898;DHT22;7019;50.766;4.474;2023-04-25T03:58:26;6.60;99.90
13898;DHT22;7019;50.766;4.474;2023-04-25T04:00:53;6.60;99.90
13898;DHT22;7019;50.766;4.474;2023-04-25T04:03:20;6.70;99.90
13898;DHT22;7019;50.766;4.474;2023-04-25T04:05:47;6.70;99.90
13898;DHT22;7019;50.766;4.474;2023-04-25T04:08:14;6.80;99.90
13898;DHT22;7019;50.766;4.474;2023-04-25T04:10:41;6.80;99.90
13898;DHT22;7019;50.766;4.474;2023-04-25T04:13:08;6.80;99.90
13898;DHT22;7019;50.766;4.474;2023-04-25T04:15:37;6.80;99.90
13898;DHT22;7019;50.766;4.474;2023-04-25T04:18:04;6.80;99.90
13898;DHT22;7019;50.766;4.474;2023-04-25T04:20:31;6.80;99.90
13898;DHT22;7019;50.766;4.474;2023-04-25T04:22:58;6.80;99.90
13898;DHT22;7019;50.766;4.474;2023-04-25T04:25:26;6.70;99.90
13898;DHT22;7019;50.766;4.474;2023-04-25T04:27:54;6.70;99.90
13898;DHT22;7019;50.766;4.474;2023-04-25T04:30:22;6.60;99.90
13898;DHT22;7019;50.766;4.474;2023-04-25T04:32:52;6.60;99.90
13898;DHT22;7019;50.766;4.474;2023-04-25T04:35:19;6.60;99.90
13898;DHT22;7019;50.766;4.474;2023-04-25T04:37:46;6.60;99.90
13898;DHT22;7019;50.766;4.474;2023-04-25T04:40:14;6.60;99.90
13898;DHT22;7019;50.766;4.474;2023-04-25T04:42:42;6.50;99.90
13898;DHT22;7019;50.766;4.474;2023-04-25T04:45:11;6.50;99.90
13898;DHT22;7019;50.766;4.474;2023-04-25T04:47:38;6.50;99.90
13898;DHT22;7019;50.766;4.474;2023-04-25T04:50:08;6.50;99.90
13898;DHT22;7019;50.766;4.474;2023-04-25T04:52:36;6.50;99.90
13898;DHT22;7019;50.766;4.474;2023-04-25T04:55:04;6.50;99.90
13898;DHT22;7019;50.766;4.474;2023-04-25T04:57:32;6.50;99.90
13898;DHT22;7019;50.766;4.474;2023-04-25T04:59:59;6.40;99.90
13898;DHT22;7019;50.766;4.474;2023-04-25T05:02:26;6.40;99.90
13898;DHT22;7019;50.766;4.474;2023-04-25T05:04:53;6.40;99.90
13898;DHT22;7019;50.766;4.474;2023-04-25T05:07:22;6.40;99.90
13898;DHT22;7019;50.766;4.474;2023-04-25T05:09:49;6.50;99.90
13898;DHT22;7019;50.766;4.474;2023-04-25T05:12:16;6.50;99.90
13898;DHT22;7019;50.766;4.474;2023-04-25T05:14:44;6.50;99.90
13898;DHT22;7019;50.766;4.474;2023-04-25T05:17:11;6.60;99.90
13898;DHT22;7019;50.766;4.474;2023-04-25T05:19:39;6.60;99.90
13898;DHT22;7019;50.766;4.474;2023-04-25T05:22:06;6.60;99.90
13898;DHT22;7019;50.766;4.474;2023-04-25T05:24:34;6.60;99.90
13898;DHT22;7019;50.766;4.474;2023-04-25T05:27:01;6.60;99.90
13898;DHT22;7019;50.766;4.474;2023-04-25T05:29:29;6.60;99.90
13898;DHT22;7019;50.766;4.474;2023-04-25T05:31:56;6.60;99.90
13898;DHT22;7019;50.766;4.474;2023-04-25T05:34:23;6.50;99.90
13898;DHT22;7019;50.766;4.474;2023-04-25T05:36:50;6.50;99.90
13898;DHT22;7019;50.766;4.474;2023-04-25T05:39:17;6.50;99.90
13898;DHT22;7019;50.766;4.474;2023-04-25T05:41:46;6.50;99.90
13898;DHT22;7019;50.766;4.474;2023-04-25T05:44:13;6.50;99.90
13898;DHT22;7019;50.766;4.474;2023-04-25T05:46:41;6.40;99.90
13898;DHT22;7019;50.766;4.474;2023-04-25T05:49:08;6.40;99.90
13898;DHT22;7019;50.766;4.474;2023-04-25T05:51:35;6.30;99.90
13898;DHT22;7019;50.766;4.474;2023-04-25T05:54:03;6.20;99.90
13898;DHT22;7019;50.766;4.474;2023-04-25T05:56:30;6.20;99.90
13898;DHT22;7019;50.766;4.474;2023-04-25T05:58:58;6.30;99.90
13898;DHT22;7019;50.766;4.474;2023-04-25T06:01:25;6.30;99.90
13898;DHT22;7019;50.766;4.474;2023-04-25T06:03:52;6.30;99.90
13898;DHT22;7019;50.766;4.474;2023-04-25T06:06:19;6.40;99.90
13898;DHT22;7019;50.766;4.474;2023-04-25T06:08:46;6.50;99.90
13898;DHT22;7019;50.766;4.474;2023-04-25T06:11:13;6.60;99.90
13898;DHT22;7019;50.766;4.474;2023-04-25T06:13:40;6.60;99.90
13898;DHT22;7019;50.766;4.474;2023-04-25T06:16:09;6.70;99.90
13898;DHT22;7019;50.766;4.474;2023-04-25T06:18:36;6.80;99.90
13898;DHT22;7019;50.766;4.474;2023-04-25T06:21:03;6.90;99.90
13898;DHT22;7019;50.766;4.474;2023-04-25T06:23:30;6.90;99.90
13898;DHT22;7019;50.766;4.474;2023-04-25T06:25:57;7.00;99.90
13898;DHT22;7019;50.766;4.474;2023-04-25T06:28:25;7.10;99.90
13898;DHT22;7019;50.766;4.474;2023-04-25T06:30:52;7.10;99.90
13898;DHT22;7019;50.766;4.474;2023-04-25T06:33:20;7.20;99.90
13898;DHT22;7019;50.766;4.474;2023-04-25T06:35:47;7.20;99.90
13898;DHT22;7019;50.766;4.474;2023-04-25T06:38:15;7.10;99.90
13898;DHT22;7019;50.766;4.474;2023-04-25T06:40:42;7.20;99.90
13898;DHT22;7019;50.766;4.474;2023-04-25T06:43:09;7.30;99.90
13898;DHT22;7019;50.766;4.474;2023-04-25T06:45:36;7.30;99.90
13898;DHT22;7019;50.766;4.474;2023-04-25T06:48:04;7.40;99.90
13898;DHT22;7019;50.766;4.474;2023-04-25T06:50:33;7.40;99.90
13898;DHT22;7019;50.766;4.474;2023-04-25T06:53:00;7.50;99.90
13898;DHT22;7019;50.766;4.474;2023-04-25T06:55:28;7.70;99.90
13898;DHT22;7019;50.766;4.474;2023-04-25T06:57:56;7.80;99.90
13898;DHT22;7019;50.766;4.474;2023-04-25T07:00:23;7.90;99.90
13898;DHT22;7019;50.766;4.474;2023-04-25T07:02:50;8.00;99.90
13898;DHT22;7019;50.766;4.474;2023-04-25T07:05:17;8.00;99.90
13898;DHT22;7019;50.766;4.474;2023-04-25T07:07:46;8.00;99.90
13898;DHT22;7019;50.766;4.474;2023-04-25T07:10:13;8.00;99.90
13898;DHT22;7019;50.766;4.474;2023-04-25T07:12:40;8.00;99.90
13898;DHT22;7019;50.766;4.474;2023-04-25T07:15:08;8.10;99.90
13898;DHT22;7019;50.766;4.474;2023-04-25T07:17:37;8.10;99.90
13898;DHT22;7019;50.766;4.474;2023-04-25T07:20:05;8.10;99.90
13898;DHT22;7019;50.766;4.474;2023-04-25T07:22:33;8.10;99.90
13898;DHT22;7019;50.766;4.474;2023-04-25T07:25:01;8.10;99.90
13898;DHT22;7019;50.766;4.474;2023-04-25T07:27:29;8.20;99.90
13898;DHT22;7019;50.766;4.474;2023-04-25T07:29:57;8.20;99.90
13898;DHT22;7019;50.766;4.474;2023-04-25T07:32:24;8.20;99.90
13898;DHT22;7019;50.766;4.474;2023-04-25T07:34:52;8.20;99.90
13898;DHT22;7019;50.766;4.474;2023-04-25T07:37:19;8.20;99.90
13898;DHT22;7019;50.766;4.474;2023-04-25T07:39:46;8.30;99.90
13898;DHT22;7019;50.766;4.474;2023-04-25T07:42:15;8.30;99.90
13898;DHT22;7019;50.766;4.474;2023-04-25T07:44:42;8.40;99.90
13898;DHT22;7019;50.766;4.474;2023-04-25T07:47:09;8.40;99.90
13898;DHT22;7019;50.766;4.474;2023-04-25T07:49:37;8.40;99.90
13898;DHT22;7019;50.766;4.474;2023-04-25T07:52:05;8.60;99.90
13898;DHT22;7019;50.766;4.474;2023-04-25T07:54:32;8.70;99.90
13898;DHT22;7019;50.766;4.474;2023-04-25T07:57:00;8.80;99.90
13898;DHT22;7019;50.766;4.474;2023-04-25T07:59:29;9.00;99.90
13898;DHT22;7019;50.766;4.474;2023-04-25T08:01:56;9.20;99.90
13898;DHT22;7019;50.766;4.474;2023-04-25T08:04:24;9.40;99.90
13898;DHT22;7019;50.766;4.474;2023-04-25T08:06:51;9.60;99.90
13898;DHT22;7019;50.766;4.474;2023-04-25T08:09:19;9.80;99.90
13898;DHT22;7019;50.766;4.474;2023-04-25T08:11:46;10.00;99.90
13898;DHT22;7019;50.766;4.474;2023-04-25T08:14:13;10.20;99.90
13898;DHT22;7019;50.766;4.474;2023-04-25T08:16:42;10.40;99.90
13898;DHT22;7019;50.766;4.474;2023-04-25T08:19:09;10.60;99.90
13898;DHT22;7019;50.766;4.474;2023-04-25T08:21:36;10.60;99.90
13898;DHT22;7019;50.766;4.474;2023-04-25T08:24:04;10.50;99.90
13898;DHT22;7019;50.766;4.474;2023-04-25T08:26:31;10.40;99.90
13898;DHT22;7019;50.766;4.474;2023-04-25T08:28:58;10.30;99.90
13898;DHT22;7019;50.766;4.474;2023-04-25T08:31:25;10.30;99.90
13898;DHT22;7019;50.766;4.474;2023-04-25T08:33:54;10.40;99.90
13898;DHT22;7019;50.766;4.474;2023-04-25T08:36:21;10.60;99.90
13898;DHT22;7019;50.766;4.474;2023-04-25T08:38:48;10.90;99.90
13898;DHT22;7019;50.766;4.474;2023-04-25T08:41:16;11.30;99.90
13898;DHT22;7019;50.766;4.474;2023-04-25T08:43:45;11.60;99.90
13898;DHT22;7019;50.766;4.474;2023-04-25T08:46:12;11.90;99.90
13898;DHT22;7019;50.766;4.474;2023-04-25T08:48:45;12.20;99.90
13898;DHT22;7019;50.766;4.474;2023-04-25T08:51:21;12.10;99.90
13898;DHT22;7019;50.766;4.474;2023-04-25T08:53:50;12.00;99.90
13898;DHT22;7019;50.766;4.474;2023-04-25T08:56:18;11.70;99.90
13898;DHT22;7019;50.766;4.474;2023-04-25T08:58:48;11.60;99.90
13898;DHT22;7019;50.766;4.474;2023-04-25T09:01:15;11.60;99.90
13898;DHT22;7019;50.766;4.474;2023-04-25T09:03:43;11.50;99.90
13898;DHT22;7019;50.766;4.474;2023-04-25T09:06:14;11.50;99.90
13898;DHT22;7019;50.766;4.474;2023-04-25T09:08:42;11.70;99.90
13898;DHT22;7019;50.766;4.474;2023-04-25T09:11:09;11.80;99.90
13898;DHT22;7019;50.766;4.474;2023-04-25T09:13:36;12.10;99.90
13898;DHT22;7019;50.766;4.474;2023-04-25T09:16:03;12.90;99.90
13898;DHT22;7019;50.766;4.474;2023-04-25T09:18:31;13.70;99.90
13898;DHT22;7019;50.766;4.474;2023-04-25T09:21:05;14.90;99.90
13898;DHT22;7019;50.766;4.474;2023-04-25T09:23:41;15.90;99.90
13898;DHT22;7019;50.766;4.474;2023-04-25T09:26:08;14.90;99.90
13898;DHT22;7019;50.766;4.474;2023-04-25T09:28:35;14.20;99.90
13898;DHT22;7019;50.766;4.474;2023-04-25T09:31:03;13.30;99.90
13898;DHT22;7019;50.766;4.474;2023-04-25T09:33:32;12.70;99.90
13898;DHT22;7019;50.766;4.474;2023-04-25T09:36:05;12.10;99.90
13898;DHT22;7019;50.766;4.474;2023-04-25T09:38:41;12.00;99.90
13898;DHT22;7019;50.766;4.474;2023-04-25T09:41:08;11.80;99.90
13898;DHT22;7019;50.766;4.474;2023-04-25T09:43:36;11.80;99.90
13898;DHT22;7019;50.766;4.474;2023-04-25T09:46:07;11.80;99.90
13898;DHT22;7019;50.766;4.474;2023-04-25T09:48:35;11.90;99.90
13898;DHT22;7019;50.766;4.474;2023-04-25T09:51:06;12.00;99.90
13898;DHT22;7019;50.766;4.474;2023-04-25T09:53:34;11.80;99.90
13898;DHT22;7019;50.766;4.474;2023-04-25T09:56:05;11.50;99.90
13898;DHT22;7019;50.766;4.474;2023-04-25T09:58:34;11.40;99.90
13898;DHT22;7019;50.766;4.474;2023-04-25T10:01:03;11.40;99.90
13898;DHT22;7019;50.766;4.474;2023-04-25T10:03:31;11.40;99.90
13898;DHT22;7019;50.766;4.474;2023-04-25T10:06:01;11.50;99.90
13898;DHT22;7019;50.766;4.474;2023-04-25T10:08:32;11.40;99.90
13898;DHT22;7019;50.766;4.474;2023-04-25T10:11:01;11.40;99.90
13898;DHT22;7019;50.766;4.474;2023-04-25T10:13:30;11.40;99.90
13898;DHT22;7019;50.766;4.474;2023-04-25T10:15:59;11.80;99.90
13898;DHT22;7019;50.766;4.474;2023-04-25T10:18:26;11.90;99.90
13898;DHT22;7019;50.766;4.474;2023-04-25T10:20:55;12.20;99.90
13898;DHT22;7019;50.766;4.474;2023-04-25T10:23:28;12.40;99.90
13898;DHT22;7019;50.766;4.474;2023-04-25T10:25:56;13.20;99.90
13898;DHT22;7019;50.766;4.474;2023-04-25T10:28:23;14.00;99.90
13898;DHT22;7019;50.766;4.474;2023-04-25T10:31:02;13.80;99.90
13898;DHT22;7019;50.766;4.474;2023-04-25T10:33:32;14.20;99.90
13898;DHT22;7019;50.766;4.474;2023-04-25T10:36:11;13.70;99.90
13898;DHT22;7019;50.766;4.474;2023-04-25T10:38:39;13.30;99.90
13898;DHT22;7019;50.766;4.474;2023-04-25T10:41:07;12.60;99.90
13898;DHT22;7019;50.766;4.474;2023-04-25T10:43:36;12.10;99.90
13898;DHT22;7019;50.766;4.474;2023-04-25T10:46:15;11.50;99.90
13898;DHT22;7019;50.766;4.474;2023-04-25T10:48:50;11.40;99.90
13898;DHT22;7019;50.766;4.474;2023-04-25T10:51:19;12.00;99.90
13898;DHT22;7019;50.766;4.474;2023-04-25T10:53:48;13.00;99.90
13898;DHT22;7019;50.766;4.474;2023-04-25T10:56:25;13.10;99.50
13898;DHT22;7019;50.766;4.474;2023-04-25T10:59:04;14.10;99.90
13898;DHT22;7019;50.766;4.474;2023-04-25T11:01:38;15.00;99.80
13898;DHT22;7019;50.766;4.474;2023-04-25T11:04:06;14.90;99.90
13898;DHT22;7019;50.766;4.474;2023-04-25T11:06:42;14.60;99.10
13898;DHT22;7019;50.766;4.474;2023-04-25T11:09:13;13.80;98.40
13898;DHT22;7019;50.766;4.474;2023-04-25T11:11:40;13.10;98.60
13898;DHT22;7019;50.766;4.474;2023-04-25T11:14:08;12.70;98.90
13898;DHT22;7019;50.766;4.474;2023-04-25T11:16:36;12.60;99.40
13898;DHT22;7019;50.766;4.474;2023-04-25T11:19:03;12.50;99.10
13898;DHT22;7019;50.766;4.474;2023-04-25T11:21:31;12.50;98.00
13898;DHT22;7019;50.766;4.474;2023-04-25T11:24:00;12.40;99.20
13898;DHT22;7019;50.766;4.474;2023-04-25T11:26:27;12.50;97.90
13898;DHT22;7019;50.766;4.474;2023-04-25T11:28:57;12.30;97.60
13898;DHT22;7019;50.766;4.474;2023-04-25T11:31:26;12.20;98.30
13898;DHT22;7019;50.766;4.474;2023-04-25T11:33:57;12.10;98.60
13898;DHT22;7019;50.766;4.474;2023-04-25T11:36:24;11.90;99.90
13898;DHT22;7019;50.766;4.474;2023-04-25T11:38:53;11.70;99.90
13898;DHT22;7019;50.766;4.474;2023-04-25T11:41:20;11.30;99.90
13898;DHT22;7019;50.766;4.474;2023-04-25T11:43:48;11.10;99.90
13898;DHT22;7019;50.766;4.474;2023-04-25T11:46:17;10.90;99.90
13898;DHT22;7019;50.766;4.474;2023-04-25T11:48:45;10.90;99.90
13898;DHT22;7019;50.766;4.474;2023-04-25T11:51:15;10.90;99.90
13898;DHT22;7019;50.766;4.474;2023-04-25T11:53:44;10.90;99.90
13898;DHT22;7019;50.766;4.474;2023-04-25T11:56:11;11.20;99.90
13898;DHT22;7019;50.766;4.474;2023-04-25T11:58:55;11.50;99.90
13898;DHT22;7019;50.766;4.474;2023-04-25T12:01:27;11.80;99.90
13898;DHT22;7019;50.766;4.474;2023-04-25T12:03:54;12.00;99.90
13898;DHT22;7019;50.766;4.474;2023-04-25T12:06:26;12.10;99.90
13898;DHT22;7019;50.766;4.474;2023-04-25T12:09:04;12.30;99.90
13898;DHT22;7019;50.766;4.474;2023-04-25T12:11:31;12.80;99.90
13898;DHT22;7019;50.766;4.474;2023-04-25T12:14:02;13.60;99.90
13898;DHT22;7019;50.766;4.474;2023-04-25T12:16:40;14.60;99.90
13898;DHT22;7019;50.766;4.474;2023-04-25T12:19:07;14.90;99.10
13898;DHT22;7019;50.766;4.474;2023-04-25T12:21:36;15.20;99.10
13898;DHT22;7019;50.766;4.474;2023-04-25T12:24:15;15.50;99.40
13898;DHT22;7019;50.766;4.474;2023-04-25T12:26:48;15.70;97.30
13898;DHT22;7019;50.766;4.474;2023-04-25T12:29:17;15.50;97.00
13898;DHT22;7019;50.766;4.474;2023-04-25T12:31:44;15.30;98.40
13898;DHT22;7019;50.766;4.474;2023-04-25T12:34:12;15.20;96.60
13898;DHT22;7019;50.766;4.474;2023-04-25T12:36:40;14.70;97.00
13898;DHT22;7019;50.766;4.474;2023-04-25T12:39:07;14.60;96.80
13898;DHT22;7019;50.766;4.474;2023-04-25T12:41:35;14.50;96.10
13898;DHT22;7019;50.766;4.474;2023-04-25T12:44:03;14.40;97.90
13898;DHT22;7019;50.766;4.474;2023-04-25T12:46:30;14.60;96.60
13898;DHT22;7019;50.766;4.474;2023-04-25T12:48:57;14.60;96.40
13898;DHT22;7019;50.766;4.474;2023-04-25T12:51:24;14.30;96.80
13898;DHT22;7019;50.766;4.474;2023-04-25T12:53:54;14.10;98.10
13898;DHT22;7019;50.766;4.474;2023-04-25T12:56:21;13.70;96.40
13898;DHT22;7019;50.766;4.474;2023-04-25T12:58:48;13.40;95.80
13898;DHT22;7019;50.766;4.474;2023-04-25T13:01:17;13.20;96.20
13898;DHT22;7019;50.766;4.474;2023-04-25T13:03:45;12.90;96.50
13898;DHT22;7019;50.766;4.474;2023-04-25T13:06:12;12.70;95.50
13898;DHT22;7019;50.766;4.474;2023-04-25T13:08:39;12.50;96.00
13898;DHT22;7019;50.766;4.474;2023-04-25T13:11:08;12.10;98.10
13898;DHT22;7019;50.766;4.474;2023-04-25T13:13:35;12.00;98.80
13898;DHT22;7019;50.766;4.474;2023-04-25T13:16:03;12.00;97.20
13898;DHT22;7019;50.766;4.474;2023-04-25T13:18:31;12.20;97.50
13898;DHT22;7019;50.766;4.474;2023-04-25T13:20:59;12.90;97.10
13898;DHT22;7019;50.766;4.474;2023-04-25T13:23:27;13.50;96.60
13898;DHT22;7019;50.766;4.474;2023-04-25T13:25:55;13.70;95.60
13898;DHT22;7019;50.766;4.474;2023-04-25T13:28:25;13.40;96.10
13898;DHT22;7019;50.766;4.474;2023-04-25T13:30:52;12.80;97.50
13898;DHT22;7019;50.766;4.474;2023-04-25T13:33:20;12.40;98.30
13898;DHT22;7019;50.766;4.474;2023-04-25T13:35:48;12.20;99.20
13898;DHT22;7019;50.766;4.474;2023-04-25T13:38:20;12.10;99.30
13898;DHT22;7019;50.766;4.474;2023-04-25T13:40:48;12.20;98.80
13898;DHT22;7019;50.766;4.474;2023-04-25T13:43:15;12.10;99.90
13898;DHT22;7019;50.766;4.474;2023-04-25T13:45:44;12.00;99.70
13898;DHT22;7019;50.766;4.474;2023-04-25T13:48:11;12.00;99.90
13898;DHT22;7019;50.766;4.474;2023-04-25T13:50:38;12.40;99.20
13898;DHT22;7019;50.766;4.474;2023-04-25T13:53:05;12.40;97.30
13898;DHT22;7019;50.766;4.474;2023-04-25T13:55:34;12.60;98.10
13898;DHT22;7019;50.766;4.474;2023-04-25T13:58:02;13.20;99.90
13898;DHT22;7019;50.766;4.474;2023-04-25T14:00:35;13.70;98.60
13898;DHT22;7019;50.766;4.474;2023-04-25T14:03:04;14.00;98.90
13898;DHT22;7019;50.766;4.474;2023-04-25T14:05:33;14.20;97.30
13898;DHT22;7019;50.766;4.474;2023-04-25T14:08:05;14.40;95.30
13898;DHT22;7019;50.766;4.474;2023-04-25T14:10:32;14.50;95.40
13898;DHT22;7019;50.766;4.474;2023-04-25T14:13:00;14.50;97.40
13898;DHT22;7019;50.766;4.474;2023-04-25T14:15:29;14.30;94.60
13898;DHT22;7019;50.766;4.474;2023-04-25T14:17:56;13.90;94.40
13898;DHT22;7019;50.766;4.474;2023-04-25T14:20:25;13.30;96.50
13898;DHT22;7019;50.766;4.474;2023-04-25T14:22:52;13.10;96.70
13898;DHT22;7019;50.766;4.474;2023-04-25T14:25:24;13.30;96.70
13898;DHT22;7019;50.766;4.474;2023-04-25T14:27:51;13.20;96.50
13898;DHT22;7019;50.766;4.474;2023-04-25T14:30:19;12.70;97.10
13898;DHT22;7019;50.766;4.474;2023-04-25T14:32:48;12.50;98.50
13898;DHT22;7019;50.766;4.474;2023-04-25T14:35:15;12.30;98.70
13898;DHT22;7019;50.766;4.474;2023-04-25T14:37:44;12.00;99.90
13898;DHT22;7019;50.766;4.474;2023-04-25T14:40:11;12.00;98.90
13898;DHT22;7019;50.766;4.474;2023-04-25T14:42:40;12.00;99.30
13898;DHT22;7019;50.766;4.474;2023-04-25T14:45:09;12.30;97.60
13898;DHT22;7019;50.766;4.474;2023-04-25T14:47:36;12.70;98.30
13898;DHT22;7019;50.766;4.474;2023-04-25T14:50:04;13.20;97.40
13898;DHT22;7019;50.766;4.474;2023-04-25T14:52:32;13.40;95.60
13898;DHT22;7019;50.766;4.474;2023-04-25T14:55:00;13.60;95.20
13898;DHT22;7019;50.766;4.474;2023-04-25T14:57:30;13.50;96.60
13898;DHT22;7019;50.766;4.474;2023-04-25T14:59:58;13.50;95.20
13898;DHT22;7019;50.766;4.474;2023-04-25T15:02:25;13.20;94.80
13898;DHT22;7019;50.766;4.474;2023-04-25T15:04:53;13.20;96.40
13898;DHT22;7019;50.766;4.474;2023-04-25T15:07:20;13.40;95.10
13898;DHT22;7019;50.766;4.474;2023-04-25T15:09:47;13.30;94.70
13898;DHT22;7019;50.766;4.474;2023-04-25T15:12:16;13.50;95.80
13898;DHT22;7019;50.766;4.474;2023-04-25T15:14:43;13.80;94.40
13898;DHT22;7019;50.766;4.474;2023-04-25T15:17:10;14.10;95.00
13898;DHT22;7019;50.766;4.474;2023-04-25T15:19:39;13.70;94.80
13898;DHT22;7019;50.766;4.474;2023-04-25T15:22:06;13.40;95.70
13898;DHT22;7019;50.766;4.474;2023-04-25T15:24:33;13.20;96.20
13898;DHT22;7019;50.766;4.474;2023-04-25T15:27:01;13.10;96.00
13898;DHT22;7019;50.766;4.474;2023-04-25T15:29:30;12.80;96.20
13898;DHT22;7019;50.766;4.474;2023-04-25T15:31:57;12.50;95.90
13898;DHT22;7019;50.766;4.474;2023-04-25T15:34:24;12.20;96.40
13898;DHT22;7019;50.766;4.474;2023-04-25T15:36:51;12.20;96.60
13898;DHT22;7019;50.766;4.474;2023-04-25T15:39:19;12.20;96.80
13898;DHT22;7019;50.766;4.474;2023-04-25T15:41:46;12.30;97.30
13898;DHT22;7019;50.766;4.474;2023-04-25T15:44:13;12.70;96.60
13898;DHT22;7019;50.766;4.474;2023-04-25T15:46:42;12.90;97.40
13898;DHT22;7019;50.766;4.474;2023-04-25T15:49:10;12.90;95.90
13898;DHT22;7019;50.766;4.474;2023-04-25T15:51:37;13.00;95.90
13898;DHT22;7019;50.766;4.474;2023-04-25T15:54:04;13.00;96.50
13898;DHT22;7019;50.766;4.474;2023-04-25T15:56:32;12.80;96.90
13898;DHT22;7019;50.766;4.474;2023-04-25T15:58:59;12.70;96.00
13898;DHT22;7019;50.766;4.474;2023-04-25T16:01:26;12.50;97.10